sensor_id;sensor_type;location;lat;lon;timestamp;P1;durP1;ratioP1;P2;durP2;ratioP2
42770;SDS011;28426;42.872;25.314;2022-10-17T00:00:02;12.23;;;7.10;;
42770;SDS011;28426;42.872;25.314;2022-10-17T00:02:35;10.32;;;6.38;;
42770;SDS011;28426;42.872;25.314;2022-10-17T00:05:08;8.02;;;5.53;;
42770;SDS011;28426;42.872;25.314;2022-10-17T00:07:39;10.82;;;5.85;;
42770;SDS011;28426;42.872;25.314;2022-10-17T00:10:10;11.15;;;6.75;;
42770;SDS011;28426;42.872;25.314;2022-10-17T00:12:40;15.40;;;6.07;;
42770;SDS011;28426;42.872;25.314;2022-10-17T00:15:14;10.90;;;6.03;;
42770;SDS011;28426;42.872;25.314;2022-10-17T00:17:46;8.73;;;5.82;;
42770;SDS011;28426;42.872;25.314;2022-10-17T00:20:19;10.77;;;5.80;;
42770;SDS011;28426;42.872;25.314;2022-10-17T00:22:50;12.90;;;5.68;;
42770;SDS011;28426;42.872;25.314;2022-10-17T00:25:21;8.35;;;4.95;;
42770;SDS011;28426;42.872;25.314;2022-10-17T00:27:52;10.98;;;5.85;;
42770;SDS011;28426;42.872;25.314;2022-10-17T00:30:22;9.15;;;5.97;;
42770;SDS011;28426;42.872;25.314;2022-10-17T00:32:53;11.52;;;6.22;;
42770;SDS011;28426;42.872;25.314;2022-10-17T00:35:26;9.10;;;5.75;;
42770;SDS011;28426;42.872;25.314;2022-10-17T00:37:57;9.18;;;5.35;;
42770;SDS011;28426;42.872;25.314;2022-10-17T00:40:27;10.15;;;5.63;;
42770;SDS011;28426;42.872;25.314;2022-10-17T00:42:58;9.43;;;6.22;;
42770;SDS011;28426;42.872;25.314;2022-10-17T00:45:29;11.98;;;5.45;;
42770;SDS011;28426;42.872;25.314;2022-10-17T00:48:02;9.70;;;6.07;;
42770;SDS011;28426;42.872;25.314;2022-10-17T00:50:38;9.60;;;6.22;;
42770;SDS011;28426;42.872;25.314;2022-10-17T00:53:13;8.70;;;5.43;;
42770;SDS011;28426;42.872;25.314;2022-10-17T00:55:46;8.05;;;5.50;;
42770;SDS011;28426;42.872;25.314;2022-10-17T00:58:19;10.57;;;6.00;;
42770;SDS011;28426;42.872;25.314;2022-10-17T01:00:51;9.55;;;5.28;;
42770;SDS011;28426;42.872;25.314;2022-10-17T01:03:22;8.75;;;4.95;;
42770;SDS011;28426;42.872;25.314;2022-10-17T01:05:56;8.90;;;5.05;;
42770;SDS011;28426;42.872;25.314;2022-10-17T01:08:27;9.77;;;5.05;;
42770;SDS011;28426;42.872;25.314;2022-10-17T01:11:00;8.02;;;5.25;;
42770;SDS011;28426;42.872;25.314;2022-10-17T01:13:44;6.28;;;3.85;;
42770;SDS011;28426;42.872;25.314;2022-10-17T01:18:58;9.25;;;5.45;;
42770;SDS011;28426;42.872;25.314;2022-10-17T01:21:41;10.85;;;5.28;;
42770;SDS011;28426;42.872;25.314;2022-10-17T01:24:28;9.50;;;5.93;;
42770;SDS011;28426;42.872;25.314;2022-10-17T01:27:16;10.05;;;6.40;;
42770;SDS011;28426;42.872;25.314;2022-10-17T01:33:15;10.00;;;5.43;;
42770;SDS011;28426;42.872;25.314;2022-10-17T01:35:51;9.18;;;5.40;;
42770;SDS011;28426;42.872;25.314;2022-10-17T01:38:32;12.73;;;5.60;;
42770;SDS011;28426;42.872;25.314;2022-10-17T01:41:09;10.57;;;5.75;;
42770;SDS011;28426;42.872;25.314;2022-10-17T01:43:46;7.78;;;4.88;;
42770;SDS011;28426;42.872;25.314;2022-10-17T01:46:23;9.07;;;5.57;;
42770;SDS011;28426;42.872;25.314;2022-10-17T01:48:59;8.85;;;4.80;;
42770;SDS011;28426;42.872;25.314;2022-10-17T01:54:08;10.02;;;5.07;;
42770;SDS011;28426;42.872;25.314;2022-10-17T01:56:45;14.93;;;6.28;;
42770;SDS011;28426;42.872;25.314;2022-10-17T01:59:21;7.22;;;4.38;;
42770;SDS011;28426;42.872;25.314;2022-10-17T02:01:54;8.03;;;5.23;;
42770;SDS011;28426;42.872;25.314;2022-10-17T02:04:29;9.25;;;5.32;;
42770;SDS011;28426;42.872;25.314;2022-10-17T02:07:04;11.48;;;5.80;;
42770;SDS011;28426;42.872;25.314;2022-10-17T02:09:36;9.45;;;5.85;;
42770;SDS011;28426;42.872;25.314;2022-10-17T02:12:13;9.77;;;5.80;;
42770;SDS011;28426;42.872;25.314;2022-10-17T02:14:54;12.95;;;6.13;;
42770;SDS011;28426;42.872;25.314;2022-10-17T02:17:38;11.27;;;5.68;;
42770;SDS011;28426;42.872;25.314;2022-10-17T02:20:19;9.02;;;5.88;;
42770;SDS011;28426;42.872;25.314;2022-10-17T02:22:54;8.82;;;5.32;;
42770;SDS011;28426;42.872;25.314;2022-10-17T02:25:30;12.10;;;5.78;;
42770;SDS011;28426;42.872;25.314;2022-10-17T02:28:06;8.70;;;5.53;;
42770;SDS011;28426;42.872;25.314;2022-10-17T02:30:46;9.20;;;4.93;;
42770;SDS011;28426;42.872;25.314;2022-10-17T02:33:22;8.15;;;5.50;;
42770;SDS011;28426;42.872;25.314;2022-10-17T02:36:01;9.52;;;5.30;;
42770;SDS011;28426;42.872;25.314;2022-10-17T02:38:36;9.52;;;5.18;;
42770;SDS011;28426;42.872;25.314;2022-10-17T02:41:08;10.07;;;5.78;;
42770;SDS011;28426;42.872;25.314;2022-10-17T02:43:42;9.45;;;5.90;;
42770;SDS011;28426;42.872;25.314;2022-10-17T02:46:17;9.70;;;5.60;;
42770;SDS011;28426;42.872;25.314;2022-10-17T02:48:51;10.27;;;5.60;;
42770;SDS011;28426;42.872;25.314;2022-10-17T02:51:27;8.25;;;5.00;;
42770;SDS011;28426;42.872;25.314;2022-10-17T02:54:04;10.13;;;5.22;;
42770;SDS011;28426;42.872;25.314;2022-10-17T02:56:40;9.20;;;5.57;;
42770;SDS011;28426;42.872;25.314;2022-10-17T02:59:15;12.27;;;5.38;;
42770;SDS011;28426;42.872;25.314;2022-10-17T03:01:49;9.05;;;4.95;;
42770;SDS011;28426;42.872;25.314;2022-10-17T03:04:20;9.18;;;5.00;;
42770;SDS011;28426;42.872;25.314;2022-10-17T03:06:53;9.18;;;4.88;;
42770;SDS011;28426;42.872;25.314;2022-10-17T03:09:24;11.18;;;5.50;;
42770;SDS011;28426;42.872;25.314;2022-10-17T03:11:56;9.98;;;5.25;;
42770;SDS011;28426;42.872;25.314;2022-10-17T03:14:27;10.48;;;5.35;;
42770;SDS011;28426;42.872;25.314;2022-10-17T03:16:57;9.48;;;5.00;;
42770;SDS011;28426;42.872;25.314;2022-10-17T03:19:28;11.18;;;5.93;;
42770;SDS011;28426;42.872;25.314;2022-10-17T03:22:01;11.10;;;5.10;;
42770;SDS011;28426;42.872;25.314;2022-10-17T03:24:37;9.55;;;5.97;;
42770;SDS011;28426;42.872;25.314;2022-10-17T03:27:08;9.63;;;6.15;;
42770;SDS011;28426;42.872;25.314;2022-10-17T03:29:39;8.80;;;6.25;;
42770;SDS011;28426;42.872;25.314;2022-10-17T03:32:09;11.90;;;6.88;;
42770;SDS011;28426;42.872;25.314;2022-10-17T03:34:40;12.63;;;5.35;;
42770;SDS011;28426;42.872;25.314;2022-10-17T03:37:14;12.82;;;6.28;;
42770;SDS011;28426;42.872;25.314;2022-10-17T03:39:44;9.50;;;6.07;;
42770;SDS011;28426;42.872;25.314;2022-10-17T03:42:15;10.20;;;5.93;;
42770;SDS011;28426;42.872;25.314;2022-10-17T03:44:47;9.63;;;5.53;;
42770;SDS011;28426;42.872;25.314;2022-10-17T03:47:18;11.10;;;5.80;;
42770;SDS011;28426;42.872;25.314;2022-10-17T03:49:49;8.93;;;5.80;;
42770;SDS011;28426;42.872;25.314;2022-10-17T03:52:23;8.65;;;5.70;;
42770;SDS011;28426;42.872;25.314;2022-10-17T03:54:54;13.00;;;6.00;;
42770;SDS011;28426;42.872;25.314;2022-10-17T03:57:25;11.00;;;5.75;;
42770;SDS011;28426;42.872;25.314;2022-10-17T03:59:56;14.55;;;6.22;;
42770;SDS011;28426;42.872;25.314;2022-10-17T04:02:29;11.45;;;6.13;;
42770;SDS011;28426;42.872;25.314;2022-10-17T04:05:01;11.95;;;5.80;;
42770;SDS011;28426;42.872;25.314;2022-10-17T04:07:34;14.48;;;6.05;;
42770;SDS011;28426;42.872;25.314;2022-10-17T04:10:06;11.25;;;6.20;;
42770;SDS011;28426;42.872;25.314;2022-10-17T04:12:37;11.68;;;5.63;;
42770;SDS011;28426;42.872;25.314;2022-10-17T04:15:09;11.77;;;6.40;;
42770;SDS011;28426;42.872;25.314;2022-10-17T04:17:41;13.02;;;7.03;;
42770;SDS011;28426;42.872;25.314;2022-10-17T04:20:15;12.80;;;6.70;;
42770;SDS011;28426;42.872;25.314;2022-10-17T04:22:49;11.65;;;7.22;;
42770;SDS011;28426;42.872;25.314;2022-10-17T04:25:20;13.20;;;7.10;;
42770;SDS011;28426;42.872;25.314;2022-10-17T04:27:50;12.27;;;7.03;;
42770;SDS011;28426;42.872;25.314;2022-10-17T04:30:22;13.63;;;7.57;;
42770;SDS011;28426;42.872;25.314;2022-10-17T04:32:52;9.98;;;7.13;;
42770;SDS011;28426;42.872;25.314;2022-10-17T04:35:23;11.13;;;6.85;;
42770;SDS011;28426;42.872;25.314;2022-10-17T04:38:03;13.05;;;6.60;;
42770;SDS011;28426;42.872;25.314;2022-10-17T04:40:35;11.20;;;6.45;;
42770;SDS011;28426;42.872;25.314;2022-10-17T04:43:05;19.38;;;7.70;;
42770;SDS011;28426;42.872;25.314;2022-10-17T04:45:36;11.90;;;6.72;;
42770;SDS011;28426;42.872;25.314;2022-10-17T04:48:07;14.77;;;6.80;;
42770;SDS011;28426;42.872;25.314;2022-10-17T04:50:38;11.05;;;6.10;;
42770;SDS011;28426;42.872;25.314;2022-10-17T04:53:32;15.10;;;7.10;;
42770;SDS011;28426;42.872;25.314;2022-10-17T04:56:09;14.80;;;7.88;;
42770;SDS011;28426;42.872;25.314;2022-10-17T04:58:41;11.63;;;6.22;;
42770;SDS011;28426;42.872;25.314;2022-10-17T05:01:13;11.73;;;6.95;;
42770;SDS011;28426;42.872;25.314;2022-10-17T05:03:50;11.55;;;6.97;;
42770;SDS011;28426;42.872;25.314;2022-10-17T05:06:23;12.02;;;7.10;;
42770;SDS011;28426;42.872;25.314;2022-10-17T05:09:17;10.75;;;6.65;;
42770;SDS011;28426;42.872;25.314;2022-10-17T05:11:48;13.60;;;7.03;;
42770;SDS011;28426;42.872;25.314;2022-10-17T05:14:19;15.20;;;7.07;;
42770;SDS011;28426;42.872;25.314;2022-10-17T05:16:50;12.93;;;7.35;;
42770;SDS011;28426;42.872;25.314;2022-10-17T05:19:21;16.75;;;7.57;;
42770;SDS011;28426;42.872;25.314;2022-10-17T05:21:51;14.63;;;8.43;;
42770;SDS011;28426;42.872;25.314;2022-10-17T05:24:25;15.07;;;7.80;;
42770;SDS011;28426;42.872;25.314;2022-10-17T05:26:55;14.02;;;7.43;;
42770;SDS011;28426;42.872;25.314;2022-10-17T05:29:26;11.18;;;7.45;;
42770;SDS011;28426;42.872;25.314;2022-10-17T05:32:05;18.63;;;9.00;;
42770;SDS011;28426;42.872;25.314;2022-10-17T05:34:36;23.25;;;12.13;;
42770;SDS011;28426;42.872;25.314;2022-10-17T05:37:07;18.58;;;9.30;;
42770;SDS011;28426;42.872;25.314;2022-10-17T05:39:41;20.45;;;9.10;;
42770;SDS011;28426;42.872;25.314;2022-10-17T05:42:18;19.15;;;9.13;;
42770;SDS011;28426;42.872;25.314;2022-10-17T05:44:48;15.10;;;7.97;;
42770;SDS011;28426;42.872;25.314;2022-10-17T05:47:19;16.27;;;8.65;;
42770;SDS011;28426;42.872;25.314;2022-10-17T05:49:50;11.07;;;6.97;;
42770;SDS011;28426;42.872;25.314;2022-10-17T05:52:33;14.40;;;7.65;;
42770;SDS011;28426;42.872;25.314;2022-10-17T05:55:13;12.93;;;7.28;;
42770;SDS011;28426;42.872;25.314;2022-10-17T05:57:44;13.48;;;6.45;;
42770;SDS011;28426;42.872;25.314;2022-10-17T06:00:17;10.40;;;6.38;;
42770;SDS011;28426;42.872;25.314;2022-10-17T06:02:54;11.30;;;5.78;;
42770;SDS011;28426;42.872;25.314;2022-10-17T06:05:25;12.35;;;6.30;;
42770;SDS011;28426;42.872;25.314;2022-10-17T06:07:56;12.43;;;5.90;;
42770;SDS011;28426;42.872;25.314;2022-10-17T06:10:34;17.60;;;6.47;;
42770;SDS011;28426;42.872;25.314;2022-10-17T06:13:05;11.40;;;5.63;;
42770;SDS011;28426;42.872;25.314;2022-10-17T06:15:35;16.30;;;6.28;;
42770;SDS011;28426;42.872;25.314;2022-10-17T06:18:07;14.13;;;6.60;;
42770;SDS011;28426;42.872;25.314;2022-10-17T06:20:38;14.10;;;6.70;;
42770;SDS011;28426;42.872;25.314;2022-10-17T06:23:13;21.90;;;9.25;;
42770;SDS011;28426;42.872;25.314;2022-10-17T06:26:10;16.02;;;6.88;;
42770;SDS011;28426;42.872;25.314;2022-10-17T06:28:41;11.05;;;5.28;;
42770;SDS011;28426;42.872;25.314;2022-10-17T06:31:12;14.45;;;6.40;;
42770;SDS011;28426;42.872;25.314;2022-10-17T06:33:44;12.40;;;6.47;;
42770;SDS011;28426;42.872;25.314;2022-10-17T06:36:16;13.52;;;6.65;;
42770;SDS011;28426;42.872;25.314;2022-10-17T06:38:48;13.40;;;7.60;;
42770;SDS011;28426;42.872;25.314;2022-10-17T06:41:31;12.05;;;7.28;;
42770;SDS011;28426;42.872;25.314;2022-10-17T06:44:04;16.92;;;7.07;;
42770;SDS011;28426;42.872;25.314;2022-10-17T06:46:37;12.02;;;6.05;;
42770;SDS011;28426;42.872;25.314;2022-10-17T06:49:09;11.80;;;5.03;;
42770;SDS011;28426;42.872;25.314;2022-10-17T06:51:47;9.82;;;5.75;;
42770;SDS011;28426;42.872;25.314;2022-10-17T06:54:24;9.38;;;5.90;;
42770;SDS011;28426;42.872;25.314;2022-10-17T06:57:10;9.30;;;5.13;;
42770;SDS011;28426;42.872;25.314;2022-10-17T06:59:51;13.25;;;5.15;;
42770;SDS011;28426;42.872;25.314;2022-10-17T07:02:30;12.52;;;5.88;;
42770;SDS011;28426;42.872;25.314;2022-10-17T07:05:01;12.18;;;6.03;;
42770;SDS011;28426;42.872;25.314;2022-10-17T07:07:33;22.02;;;10.07;;
42770;SDS011;28426;42.872;25.314;2022-10-17T07:10:09;27.63;;;10.65;;
42770;SDS011;28426;42.872;25.314;2022-10-17T07:12:43;24.45;;;9.15;;
42770;SDS011;28426;42.872;25.314;2022-10-17T07:15:14;19.75;;;9.07;;
42770;SDS011;28426;42.872;25.314;2022-10-17T07:17:47;18.08;;;7.80;;
42770;SDS011;28426;42.872;25.314;2022-10-17T07:20:18;12.57;;;6.85;;
42770;SDS011;28426;42.872;25.314;2022-10-17T07:22:49;15.48;;;7.07;;
42770;SDS011;28426;42.872;25.314;2022-10-17T07:25:21;11.32;;;6.20;;
42770;SDS011;28426;42.872;25.314;2022-10-17T07:27:59;20.02;;;7.53;;
42770;SDS011;28426;42.872;25.314;2022-10-17T07:30:31;15.32;;;6.82;;
42770;SDS011;28426;42.872;25.314;2022-10-17T07:33:07;14.13;;;5.72;;
42770;SDS011;28426;42.872;25.314;2022-10-17T07:35:38;12.23;;;5.68;;
42770;SDS011;28426;42.872;25.314;2022-10-17T07:38:10;11.20;;;5.80;;
42770;SDS011;28426;42.872;25.314;2022-10-17T07:40:40;12.18;;;6.45;;
42770;SDS011;28426;42.872;25.314;2022-10-17T07:43:14;12.68;;;6.88;;
42770;SDS011;28426;42.872;25.314;2022-10-17T07:45:45;15.70;;;6.63;;
42770;SDS011;28426;42.872;25.314;2022-10-17T07:48:16;15.10;;;5.88;;
42770;SDS011;28426;42.872;25.314;2022-10-17T07:50:48;9.38;;;6.15;;
42770;SDS011;28426;42.872;25.314;2022-10-17T07:53:19;11.52;;;5.50;;
42770;SDS011;28426;42.872;25.314;2022-10-17T07:55:50;12.77;;;5.80;;
42770;SDS011;28426;42.872;25.314;2022-10-17T07:58:23;14.73;;;6.45;;
42770;SDS011;28426;42.872;25.314;2022-10-17T08:00:54;11.63;;;4.90;;
42770;SDS011;28426;42.872;25.314;2022-10-17T08:03:30;7.22;;;4.43;;
42770;SDS011;28426;42.872;25.314;2022-10-17T08:06:01;10.27;;;4.88;;
42770;SDS011;28426;42.872;25.314;2022-10-17T08:08:32;13.57;;;4.72;;
42770;SDS011;28426;42.872;25.314;2022-10-17T08:11:04;10.73;;;4.57;;
42770;SDS011;28426;42.872;25.314;2022-10-17T08:13:40;8.40;;;4.53;;
42770;SDS011;28426;42.872;25.314;2022-10-17T08:16:11;11.98;;;4.30;;
42770;SDS011;28426;42.872;25.314;2022-10-17T08:18:42;9.35;;;4.38;;
42770;SDS011;28426;42.872;25.314;2022-10-17T08:21:13;10.98;;;4.65;;
42770;SDS011;28426;42.872;25.314;2022-10-17T08:23:43;12.57;;;4.18;;
42770;SDS011;28426;42.872;25.314;2022-10-17T08:26:14;8.48;;;3.65;;
42770;SDS011;28426;42.872;25.314;2022-10-17T08:28:48;9.07;;;4.30;;
42770;SDS011;28426;42.872;25.314;2022-10-17T08:31:20;9.30;;;4.10;;
42770;SDS011;28426;42.872;25.314;2022-10-17T08:33:51;8.82;;;4.10;;
42770;SDS011;28426;42.872;25.314;2022-10-17T08:36:21;14.63;;;4.47;;
42770;SDS011;28426;42.872;25.314;2022-10-17T08:38:53;9.43;;;3.33;;
42770;SDS011;28426;42.872;25.314;2022-10-17T08:41:29;14.48;;;4.18;;
42770;SDS011;28426;42.872;25.314;2022-10-17T08:44:13;15.23;;;4.40;;
42770;SDS011;28426;42.872;25.314;2022-10-17T08:46:55;7.32;;;3.40;;
42770;SDS011;28426;42.872;25.314;2022-10-17T08:49:35;6.18;;;3.20;;
42770;SDS011;28426;42.872;25.314;2022-10-17T08:52:10;8.55;;;3.92;;
42770;SDS011;28426;42.872;25.314;2022-10-17T08:54:47;6.10;;;2.85;;
42770;SDS011;28426;42.872;25.314;2022-10-17T08:57:19;7.93;;;2.80;;
42770;SDS011;28426;42.872;25.314;2022-10-17T08:59:53;8.73;;;2.92;;
42770;SDS011;28426;42.872;25.314;2022-10-17T09:05:23;6.38;;;2.97;;
42770;SDS011;28426;42.872;25.314;2022-10-17T09:08:05;8.07;;;3.40;;
42770;SDS011;28426;42.872;25.314;2022-10-17T09:10:49;8.27;;;2.60;;
42770;SDS011;28426;42.872;25.314;2022-10-17T09:13:31;6.90;;;3.30;;
42770;SDS011;28426;42.872;25.314;2022-10-17T09:16:17;8.85;;;2.88;;
42770;SDS011;28426;42.872;25.314;2022-10-17T09:19:07;6.78;;;2.85;;
42770;SDS011;28426;42.872;25.314;2022-10-17T09:21:47;4.90;;;2.50;;
42770;SDS011;28426;42.872;25.314;2022-10-17T09:24:24;5.50;;;2.55;;
42770;SDS011;28426;42.872;25.314;2022-10-17T09:27:02;7.60;;;2.70;;
42770;SDS011;28426;42.872;25.314;2022-10-17T09:29:33;5.82;;;2.75;;
42770;SDS011;28426;42.872;25.314;2022-10-17T09:32:12;6.03;;;2.45;;
42770;SDS011;28426;42.872;25.314;2022-10-17T09:34:46;9.30;;;3.30;;
42770;SDS011;28426;42.872;25.314;2022-10-17T09:37:17;6.10;;;2.45;;
42770;SDS011;28426;42.872;25.314;2022-10-17T09:39:49;14.48;;;3.70;;
42770;SDS011;28426;42.872;25.314;2022-10-17T09:42:19;9.55;;;2.60;;
42770;SDS011;28426;42.872;25.314;2022-10-17T09:45:00;5.90;;;2.55;;
42770;SDS011;28426;42.872;25.314;2022-10-17T09:47:45;6.07;;;3.00;;
42770;SDS011;28426;42.872;25.314;2022-10-17T09:53:00;8.60;;;2.42;;
42770;SDS011;28426;42.872;25.314;2022-10-17T09:55:37;6.03;;;2.60;;
42770;SDS011;28426;42.872;25.314;2022-10-17T09:58:10;6.75;;;2.80;;
42770;SDS011;28426;42.872;25.314;2022-10-17T10:00:42;8.20;;;2.38;;
42770;SDS011;28426;42.872;25.314;2022-10-17T10:03:18;6.03;;;2.40;;
42770;SDS011;28426;42.872;25.314;2022-10-17T10:06:00;5.45;;;2.30;;
42770;SDS011;28426;42.872;25.314;2022-10-17T10:08:33;5.68;;;2.60;;
42770;SDS011;28426;42.872;25.314;2022-10-17T10:11:07;5.22;;;2.58;;
42770;SDS011;28426;42.872;25.314;2022-10-17T10:13:40;7.13;;;2.30;;
42770;SDS011;28426;42.872;25.314;2022-10-17T10:16:16;6.38;;;2.05;;
42770;SDS011;28426;42.872;25.314;2022-10-17T10:18:52;7.93;;;2.20;;
42770;SDS011;28426;42.872;25.314;2022-10-17T10:21:23;5.80;;;2.17;;
42770;SDS011;28426;42.872;25.314;2022-10-17T10:24:02;5.63;;;2.00;;
42770;SDS011;28426;42.872;25.314;2022-10-17T10:26:37;3.80;;;1.90;;
42770;SDS011;28426;42.872;25.314;2022-10-17T10:29:18;7.13;;;2.42;;
42770;SDS011;28426;42.872;25.314;2022-10-17T10:31:51;6.75;;;2.88;;
42770;SDS011;28426;42.872;25.314;2022-10-17T10:34:47;4.95;;;2.10;;
42770;SDS011;28426;42.872;25.314;2022-10-17T10:37:22;3.97;;;1.97;;
42770;SDS011;28426;42.872;25.314;2022-10-17T10:39:55;7.20;;;2.10;;
42770;SDS011;28426;42.872;25.314;2022-10-17T10:42:28;7.78;;;2.50;;
42770;SDS011;28426;42.872;25.314;2022-10-17T10:45:03;4.90;;;2.10;;
42770;SDS011;28426;42.872;25.314;2022-10-17T10:48:11;4.43;;;1.80;;
42770;SDS011;28426;42.872;25.314;2022-10-17T10:50:51;6.32;;;2.05;;
42770;SDS011;28426;42.872;25.314;2022-10-17T10:53:33;5.00;;;1.70;;
42770;SDS011;28426;42.872;25.314;2022-10-17T10:58:48;5.10;;;2.20;;
42770;SDS011;28426;42.872;25.314;2022-10-17T11:01:25;6.72;;;1.80;;
42770;SDS011;28426;42.872;25.314;2022-10-17T11:07:01;4.63;;;1.70;;
42770;SDS011;28426;42.872;25.314;2022-10-17T11:09:39;4.30;;;2.00;;
42770;SDS011;28426;42.872;25.314;2022-10-17T11:12:17;5.70;;;1.90;;
42770;SDS011;28426;42.872;25.314;2022-10-17T11:14:51;5.75;;;2.00;;
42770;SDS011;28426;42.872;25.314;2022-10-17T11:17:29;5.50;;;1.80;;
42770;SDS011;28426;42.872;25.314;2022-10-17T11:20:09;4.45;;;1.60;;
42770;SDS011;28426;42.872;25.314;2022-10-17T11:22:51;4.63;;;1.93;;
42770;SDS011;28426;42.872;25.314;2022-10-17T11:25:33;5.03;;;1.90;;
42770;SDS011;28426;42.872;25.314;2022-10-17T11:28:10;4.85;;;2.03;;
42770;SDS011;28426;42.872;25.314;2022-10-17T11:30:44;33.85;;;5.55;;
42770;SDS011;28426;42.872;25.314;2022-10-17T11:33:20;7.68;;;2.60;;
42770;SDS011;28426;42.872;25.314;2022-10-17T11:35:59;6.78;;;1.52;;
42770;SDS011;28426;42.872;25.314;2022-10-17T11:38:41;4.38;;;1.65;;
42770;SDS011;28426;42.872;25.314;2022-10-17T11:41:16;4.60;;;1.70;;
42770;SDS011;28426;42.872;25.314;2022-10-17T11:43:52;4.45;;;1.98;;
42770;SDS011;28426;42.872;25.314;2022-10-17T11:46:27;4.45;;;1.70;;
42770;SDS011;28426;42.872;25.314;2022-10-17T11:49:03;4.65;;;1.70;;
42770;SDS011;28426;42.872;25.314;2022-10-17T11:51:47;9.60;;;2.05;;
42770;SDS011;28426;42.872;25.314;2022-10-17T11:54:32;8.70;;;1.60;;
42770;SDS011;28426;42.872;25.314;2022-10-17T11:57:15;6.07;;;1.67;;
42770;SDS011;28426;42.872;25.314;2022-10-17T12:00:16;3.63;;;1.60;;
42770;SDS011;28426;42.872;25.314;2022-10-17T12:02:54;3.80;;;1.70;;
42770;SDS011;28426;42.872;25.314;2022-10-17T12:05:36;5.60;;;1.77;;
42770;SDS011;28426;42.872;25.314;2022-10-17T12:08:12;6.47;;;1.88;;
42770;SDS011;28426;42.872;25.314;2022-10-17T12:11:00;7.35;;;1.92;;
42770;SDS011;28426;42.872;25.314;2022-10-17T12:13:48;5.05;;;1.88;;
42770;SDS011;28426;42.872;25.314;2022-10-17T12:19:19;4.95;;;1.90;;
42770;SDS011;28426;42.872;25.314;2022-10-17T12:21:58;5.03;;;2.00;;
42770;SDS011;28426;42.872;25.314;2022-10-17T12:24:33;4.35;;;1.80;;
42770;SDS011;28426;42.872;25.314;2022-10-17T12:30:13;5.50;;;1.90;;
42770;SDS011;28426;42.872;25.314;2022-10-17T12:35:48;7.57;;;2.65;;
42770;SDS011;28426;42.872;25.314;2022-10-17T12:38:29;4.80;;;1.95;;
42770;SDS011;28426;42.872;25.314;2022-10-17T12:41:00;5.05;;;2.10;;
42770;SDS011;28426;42.872;25.314;2022-10-17T12:43:42;5.78;;;1.77;;
42770;SDS011;28426;42.872;25.314;2022-10-17T12:49:37;8.40;;;2.33;;
42770;SDS011;28426;42.872;25.314;2022-10-17T12:54:57;7.18;;;2.30;;
42770;SDS011;28426;42.872;25.314;2022-10-17T12:57:43;4.72;;;2.40;;
42770;SDS011;28426;42.872;25.314;2022-10-17T13:00:22;5.00;;;2.00;;
42770;SDS011;28426;42.872;25.314;2022-10-17T13:03:05;9.63;;;2.17;;
42770;SDS011;28426;42.872;25.314;2022-10-17T13:05:42;6.68;;;2.72;;
42770;SDS011;28426;42.872;25.314;2022-10-17T13:08:17;10.27;;;2.50;;
42770;SDS011;28426;42.872;25.314;2022-10-17T13:10:51;6.43;;;2.85;;
42770;SDS011;28426;42.872;25.314;2022-10-17T13:13:35;6.32;;;2.40;;
42770;SDS011;28426;42.872;25.314;2022-10-17T13:19:03;9.45;;;2.70;;
42770;SDS011;28426;42.872;25.314;2022-10-17T13:21:48;5.13;;;2.50;;
42770;SDS011;28426;42.872;25.314;2022-10-17T13:24:20;6.68;;;3.05;;
42770;SDS011;28426;42.872;25.314;2022-10-17T13:26:52;8.48;;;2.60;;
42770;SDS011;28426;42.872;25.314;2022-10-17T13:29:22;9.82;;;3.00;;
42770;SDS011;28426;42.872;25.314;2022-10-17T13:31:57;6.75;;;2.50;;
42770;SDS011;28426;42.872;25.314;2022-10-17T13:34:30;5.65;;;2.78;;
42770;SDS011;28426;42.872;25.314;2022-10-17T13:37:03;8.00;;;2.92;;
42770;SDS011;28426;42.872;25.314;2022-10-17T13:39:36;9.05;;;2.70;;
42770;SDS011;28426;42.872;25.314;2022-10-17T13:42:22;10.77;;;3.13;;
42770;SDS011;28426;42.872;25.314;2022-10-17T13:44:55;10.65;;;3.90;;
42770;SDS011;28426;42.872;25.314;2022-10-17T13:47:32;7.05;;;3.13;;
42770;SDS011;28426;42.872;25.314;2022-10-17T13:50:06;8.38;;;2.80;;
42770;SDS011;28426;42.872;25.314;2022-10-17T13:53:06;6.35;;;2.70;;
42770;SDS011;28426;42.872;25.314;2022-10-17T13:55:54;7.13;;;3.03;;
42770;SDS011;28426;42.872;25.314;2022-10-17T13:58:47;6.65;;;2.97;;
42770;SDS011;28426;42.872;25.314;2022-10-17T14:01:19;7.80;;;3.10;;
42770;SDS011;28426;42.872;25.314;2022-10-17T14:03:53;6.85;;;3.20;;
42770;SDS011;28426;42.872;25.314;2022-10-17T14:06:35;8.73;;;3.30;;
42770;SDS011;28426;42.872;25.314;2022-10-17T14:09:18;11.05;;;5.03;;
42770;SDS011;28426;42.872;25.314;2022-10-17T14:11:56;12.60;;;3.90;;
42770;SDS011;28426;42.872;25.314;2022-10-17T14:14:29;8.10;;;3.80;;
42770;SDS011;28426;42.872;25.314;2022-10-17T14:17:21;8.55;;;3.83;;
42770;SDS011;28426;42.872;25.314;2022-10-17T14:19:57;10.40;;;3.28;;
42770;SDS011;28426;42.872;25.314;2022-10-17T14:22:51;14.85;;;3.95;;
42770;SDS011;28426;42.872;25.314;2022-10-17T14:25:41;10.95;;;4.43;;
42770;SDS011;28426;42.872;25.314;2022-10-17T14:28:13;14.63;;;4.80;;
42770;SDS011;28426;42.872;25.314;2022-10-17T14:30:45;12.60;;;4.72;;
42770;SDS011;28426;42.872;25.314;2022-10-17T14:33:23;10.32;;;4.30;;
42770;SDS011;28426;42.872;25.314;2022-10-17T14:36:00;8.68;;;4.38;;
42770;SDS011;28426;42.872;25.314;2022-10-17T14:38:32;9.88;;;4.03;;
42770;SDS011;28426;42.872;25.314;2022-10-17T14:41:04;8.38;;;4.63;;
42770;SDS011;28426;42.872;25.314;2022-10-17T14:44:02;10.27;;;4.05;;
42770;SDS011;28426;42.872;25.314;2022-10-17T14:46:35;10.07;;;4.15;;
42770;SDS011;28426;42.872;25.314;2022-10-17T14:49:07;6.80;;;3.00;;
42770;SDS011;28426;42.872;25.314;2022-10-17T14:54:53;6.10;;;3.40;;
42770;SDS011;28426;42.872;25.314;2022-10-17T14:57:28;6.72;;;3.47;;
42770;SDS011;28426;42.872;25.314;2022-10-17T15:00:13;11.18;;;3.95;;
42770;SDS011;28426;42.872;25.314;2022-10-17T15:02:45;8.77;;;3.53;;
42770;SDS011;28426;42.872;25.314;2022-10-17T15:05:17;8.45;;;3.60;;
42770;SDS011;28426;42.872;25.314;2022-10-17T15:07:51;12.27;;;3.95;;
42770;SDS011;28426;42.872;25.314;2022-10-17T15:10:30;9.68;;;4.00;;
42770;SDS011;28426;42.872;25.314;2022-10-17T15:13:03;13.90;;;4.50;;
42770;SDS011;28426;42.872;25.314;2022-10-17T15:15:54;11.15;;;4.45;;
42770;SDS011;28426;42.872;25.314;2022-10-17T15:18:24;12.70;;;3.75;;
42770;SDS011;28426;42.872;25.314;2022-10-17T15:20:55;11.02;;;4.40;;
42770;SDS011;28426;42.872;25.314;2022-10-17T15:23:46;10.07;;;4.05;;
42770;SDS011;28426;42.872;25.314;2022-10-17T15:26:17;9.23;;;3.58;;
42770;SDS011;28426;42.872;25.314;2022-10-17T15:28:50;8.73;;;3.72;;
42770;SDS011;28426;42.872;25.314;2022-10-17T15:31:22;9.75;;;3.75;;
42770;SDS011;28426;42.872;25.314;2022-10-17T15:33:54;12.75;;;4.18;;
42770;SDS011;28426;42.872;25.314;2022-10-17T15:36:25;9.18;;;4.18;;
42770;SDS011;28426;42.872;25.314;2022-10-17T15:39:00;13.68;;;4.10;;
42770;SDS011;28426;42.872;25.314;2022-10-17T15:41:31;13.82;;;3.70;;
42770;SDS011;28426;42.872;25.314;2022-10-17T15:44:02;13.32;;;4.13;;
42770;SDS011;28426;42.872;25.314;2022-10-17T15:46:33;12.80;;;4.80;;
42770;SDS011;28426;42.872;25.314;2022-10-17T15:49:05;19.52;;;6.80;;
42770;SDS011;28426;42.872;25.314;2022-10-17T15:51:39;8.23;;;5.80;;
42770;SDS011;28426;42.872;25.314;2022-10-17T15:54:12;21.55;;;10.23;;
42770;SDS011;28426;42.872;25.314;2022-10-17T15:56:43;19.40;;;11.75;;